»·PEaware :: ADB525 KRNO-KOAK

ADB525 :: KRNO-KOAK

FLIGHT INFORMATION

Flight Status: Arrived
Operator:
Antonov Design Bureau
More flights by this operator :: More flights under this callsign
Pilot: Kim B. (19519)
Aircraft: ANTONOV AN-225 MRYIA
(A225)
More flights by this aircraft type
Origin: KRNO Reno/Tahoe Intl
United States
Destination: KOAK Metro Oakland Intl
United States
More flights between these airports :: More routes between these airports
Route: +ZEFFR6 MRLET OAKES2
File this flight plan on PilotEdge
Remarks:
Altitude:
(Current/Filed)
24,000ft
Speed:
(Current/Filed)
300kts
Departed: 13-Nov-18 01:15 PM
Arrived: 13-Nov-18 01:50 PM
Distance/Time
Traveled:
157nm/0:35
Distance/Time
To Go:
Arrived

Flight Plot

Page will automatically refresh every two minutes.


Map Options




Map Legend


Flown Route
Filed Route
Departure Airport
Arrival Airport
Navaid (VOR, NDB)
Fix

Horizontal Profiles

Position Reports

Time Latitude Longitude Heading Altitude Ground
Speed
13-Nov-18 12:53 39.509626 -119.772915 329 4429ft 0kts
13-Nov-18 12:54 39.509626 -119.772915 329 4429ft 0kts
13-Nov-18 12:55 39.509626 -119.772915 329 4429ft 0kts
13-Nov-18 12:56 39.509626 -119.772915 329 4429ft 0kts
13-Nov-18 12:57 39.509626 -119.772915 329 4429ft 0kts
13-Nov-18 12:58 39.509626 -119.772915 329 4429ft 0kts
13-Nov-18 12:59 39.509626 -119.772915 329 4429ft 0kts
13-Nov-18 13:00 39.509626 -119.772915 329 4429ft 0kts
13-Nov-18 13:01 39.509626 -119.772915 329 4429ft 0kts
13-Nov-18 13:02 39.509626 -119.772915 329 4429ft 0kts
13-Nov-18 13:03 39.509626 -119.772915 329 4429ft 0kts
13-Nov-18 13:04 39.509626 -119.772915 329 4429ft 0kts
13-Nov-18 13:05 39.509626 -119.772915 329 4429ft 0kts
13-Nov-18 13:06 39.509626 -119.772915 329 4429ft 0kts
13-Nov-18 13:07 39.509626 -119.772915 329 4429ft 0kts
13-Nov-18 13:08 39.509626 -119.772915 329 4429ft 0kts
13-Nov-18 13:09 39.509626 -119.772915 329 4429ft 0kts
13-Nov-18 13:10 39.509548 -119.772857 330 4429ft 7kts
13-Nov-18 13:11 39.508999 -119.771818 303 4429ft 4kts
13-Nov-18 13:12 39.508600 -119.771483 358 4429ft 0kts
13-Nov-18 13:13 39.508600 -119.771483 358 4429ft 0kts
13-Nov-18 13:14 39.510717 -119.771479 359 4429ft 2kts
13-Nov-18 13:15 39.513762 -119.770415 48 4429ft 4kts
13-Nov-18 13:16 39.513767 -119.770401 50 4429ft 0kts
13-Nov-18 13:17 39.513769 -119.770057 94 4429ft 5kts
13-Nov-18 13:18 39.506229 -119.769253 180 4429ft 115kts
13-Nov-18 13:19 39.445926 -119.769027 179 7917ft 269kts
13-Nov-18 13:20 39.368801 -119.769324 180 10342ft 302kts
13-Nov-18 13:21 39.287847 -119.778633 194 14732ft 316kts
13-Nov-18 13:22 39.199338 -119.804454 192 18544ft 334kts
13-Nov-18 13:23 39.108342 -119.830756 193 18566ft 336kts
13-Nov-18 13:24 39.022855 -119.855910 192 19991ft 369kts
13-Nov-18 13:25 38.935253 -119.881553 192 23991ft 362kts
13-Nov-18 13:26 38.829187 -119.912496 194 23996ft 396kts
13-Nov-18 13:27 38.720126 -119.944264 194 24589ft 414kts
13-Nov-18 13:28 38.609052 -119.976533 194 24549ft 413kts
13-Nov-18 13:29 38.497774 -120.008747 194 24548ft 413kts
13-Nov-18 13:30 38.385958 -120.041015 194 24535ft 413kts
13-Nov-18 13:31 38.275156 -120.075141 206 24469ft 409kts
13-Nov-18 13:32 38.184554 -120.141187 211 24489ft 408kts
13-Nov-18 13:33 38.096442 -120.202286 211 24461ft 408kts
13-Nov-18 13:34 37.997038 -120.270945 211 24458ft 408kts
13-Nov-18 13:35 37.898472 -120.340757 220 24415ft 404kts
13-Nov-18 13:36 37.862081 -120.464836 260 23299ft 384kts
13-Nov-18 13:37 37.839908 -120.596879 260 21216ft 406kts
13-Nov-18 13:38 37.815738 -120.738547 259 21203ft 385kts
13-Nov-18 13:39 37.793744 -120.867267 259 20595ft 374kts
13-Nov-18 13:40 37.771419 -120.995546 259 20265ft 376kts
13-Nov-18 13:41 37.751871 -121.107984 258 19054ft 352kts
13-Nov-18 13:42 37.731106 -121.227407 256 17352ft 348kts
13-Nov-18 13:43 37.704568 -121.344582 251 14856ft 348kts
13-Nov-18 13:44 37.674683 -121.459826 251 12369ft 347kts
13-Nov-18 13:45 37.644776 -121.574801 251 9877ft 344kts
13-Nov-18 13:46 37.615424 -121.687283 252 7991ft 320kts
13-Nov-18 13:47 37.608470 -121.793431 264 6660ft 295kts
13-Nov-18 13:48 37.607288 -121.896018 270 4679ft 299kts
13-Nov-18 13:49 37.606458 -121.991587 267 4109ft 256kts
13-Nov-18 13:50 37.612868 -122.079388 285 2868ft 247kts
13-Nov-18 13:51 37.653788 -122.142897 309 2002ft 227kts
13-Nov-18 13:52 37.687776 -122.193829 308 1194ft 180kts
13-Nov-18 13:53 37.708914 -122.225307 310 17ft 0kts
13-Nov-18 13:57 37.711221 -122.226178 12 25ft 0kts
13-Nov-18 13:58 37.711221 -122.226178 12 25ft 0kts
13-Nov-18 13:59 37.713424 -122.223232 66 25ft 23kts
13-Nov-18 14:00 37.711414 -122.220127 130 25ft 0kts
13-Nov-18 14:01 37.711448 -122.219654 130 25ft 0kts
13-Nov-18 14:02 37.711326 -122.219469 129 25ft 0kts
13-Nov-18 14:03 37.711326 -122.219469 129 25ft 0kts
13-Nov-18 14:04 37.711326 -122.219469 129 25ft 0kts
13-Nov-18 14:05 37.711326 -122.219469 129 25ft 0kts
13-Nov-18 14:06 37.711326 -122.219469 129 25ft 0kts
13-Nov-18 14:07 37.711326 -122.219469 129 25ft 0kts
13-Nov-18 14:08 37.711326 -122.219469 129 25ft 0kts

Navigation Log

Ident Type
Flight plan parsing failed, navigation log unavailable